Northfield, Massachusetts
Current Conditions -  °F | °C
As of 10:52 PM on Saturday 25 Oct 2014 (Local Time) from KORE Reporting Station
Overcast Overcast  
Wind Chill: 49°   Ceiling: 5000
Heat Index: 49°   Visibility: 8mi
Dew Point: 47°   Wind: 0mph
Humidity: 93%   Direction: NA
Pressure: 29.54"   Gusts: NA
Location:  42.71°N, 72.44°W
Report Text: KORE 260252Z AUTO 00000KT 8SM OVC050 09/08 A2954 RMK AO2 SLP005 60000 T00940083 55012
Loading
Personal Weather Stations






























Interactive Weather Map
Tropical Storm Tracking
New forecast layout! Learn more

10-Day Weather Forecast

Advertisements
Track Severe Weather on mobile